AirNav  
 
 420 users online  

8NC8 Lake Ridge Aero Park Airport
Durham, North Carolina, USA

GOING TO DURHAM?


FAA INFORMATION EFFECTIVE 26 APRIL 2018

Location

FAA Identifier: 8NC8
Lat/Long: 36-03-36.5220N / 078-47-00.0190W
36-03.608700N / 078-47.000317W
36.0601450 / -78.7833386
(estimated)
Elevation: 309 ft. / 94.2 m (surveyed)
Variation: 07W (1985)
From city: 7 miles NE of DURHAM, NC
Time zone: UTC -4 (UTC -5 during Standard Time)
Zip code: 27704

Airport Operations

Airport use: Private use. Permission required prior to landing
Activation date: 09/1948
Control tower: no
ARTCC: WASHINGTON CENTER
FSS: RALEIGH FLIGHT SERVICE STATION
Attendance: UNATNDD
Pattern altitude: 1409 ft. MSL
Wind indicator: yes
Segmented circle: no
Lights: SS-SR

Airport Communications

WX ASOS at RDU (11 nm S): PHONE 919-840-0816
WX ASOS at IGX (16 nm SW): 134.575 (919-942-2538)
WX AWOS-3 at TDF (17 nm NW): 126.725 (336-364-1651)

Nearby radio navigation aids

VOR radial/distance  VOR name  Freq  Var
RDUr004/11.3RALEIGH/DURHAM VORTAC117.2004W
SBVr168/38.5SOUTH BOSTON VORTAC110.4005W

 
NDB name  Hdg/Dist  Freq  Var  ID
LEEVY346/8.535007WLE .-.. .
HUNTSBORO218/16.527109WHXO .... -..- ---
PERSON135/17.222008WHUR .... ..- .-.
HARNETT000/38.041708WHQT .... --.- -

Airport Services

Fuel available: 100LL
Parking: hangars
Airframe service: NONE
Powerplant service: NONE
Bottled oxygen: NONE
Bulk oxygen: NONE

Runway Information

Runway 14/32

Dimensions: 3200 x 150 ft. / 975 x 46 m
Surface: turf
CENTER 30' FAIR.
Runway edge lights: low intensity
RWY LGTS NON STANDARD.
RUNWAY 14  RUNWAY 32
Gradient: 0.5%0.5%
Traffic pattern: leftleft
Runway end identifier lights: nono
Obstructions: 50 ft. trees, 300 ft. from runway, 75 ft. left of centerline
POLE & FENCE 299' AND SIGN 100' FM THR.
75 ft. trees, 300 ft. from runway, 75 ft. both sides of centerline

Airport Ownership and Management from official FAA records

Ownership: Privately-owned
Owner: BRNJ INC
100 CITATION CIRCLE
DURHAM, NC 27704
Phone 919-688-6358
Manager: RICK FULLER
5206 SKY LANE DR
DURHAM, NC 27704
Phone 919-688-2928

Airport Operational Statistics

Aircraft based on the field: 51
Single engine airplanes: 50
Ultralights: 1
    
Aircraft operations: avg 29/week *
80% local general aviation
20% transient general aviation
* for 12-month period ending 18 May 1981

Additional Remarks

RY SOFT WHEN WET.

Instrument Procedures

There are no published instrument procedures at 8NC8.

Some nearby airports with instrument procedures:

KRDU - Raleigh-Durham International Airport (11 nm S)
KIGX - Horace Williams Airport (16 nm SW)
KTDF - Person County Airport (17 nm NW)
KHNZ - Henderson-Oxford Airport (22 nm NE)
KLHZ - Triangle North Executive Airport (22 nm E)
 
Loc | Ops | Rwys | IFR | FBO | Links
Com | Nav | Svcs | Stats | Notes

AirNav Hotels Sweepstakes
 
Area around 8NC8 (Lake Ridge Aero Park Airport)
 
Road maps at: MapQuest Bing Google
 
Aerial photo
WARNING: Photo may not be current or correct
Aerial photo of 8NC8 (Lake Ridge Aero Park Airport)
Photo taken 20-Jul-2008
on final for runway 32

Do you have a better or more recent aerial photo of Lake Ridge Aero Park Airport that you would like to share? If so, please send us your photo.

 
Sectional chart

 
Airport distance calculator
Flying to Lake Ridge Aero Park Airport? Find the distance to fly.

From to 8NC8

Sunrise and sunset
Times for 27-Apr-2018
 Local
(UTC-4)
 Zulu
(UTC)
Morning civil twilight06:0110:01
Sunrise06:2810:28
Sunset19:5823:58
Evening civil twilight20:2500:25

Current date and time
Zulu (UTC)  27-Apr-2018 06:02:15
Local (UTC-4)  27-Apr-2018 02:02:15
 
METAR
KRDU 
12nm S 
270551Z 02003KT 10SM FEW006 FEW028 SCT090 BKN130 14/14 A2979 RMK AO2 RAE37 SLP085 P0001 60019 T01440144 10200 20144 58007 $
KIGX 
16nm SW 
270556Z AUTO 00000KT 2SM BR FEW002 SCT080 14/13 A2980 RMK AO2 VIS 3/4V5 SLP085 60035 T01440133 10189 20144 58002 TSNO
KTDF 
17nm NW 
270535Z AUTO 00000KT 10SM SCT070 OVC090 13/13 A2981 RMK AO2
KHNZ 
22nm NE 
270535Z AUTO 00000KT 10SM -RA SCT007 SCT065 13/13 A2980 RMK AO2 P0008 T01330125
KLHZ 
22nm E 
270555Z AUTO 00000KT 10SM DZ SCT027 BKN075 OVC100 15/15 A2982 RMK AO2 P0001
TAF
KRDU 
12nm S 
270540Z 2706/2806 VRB03KT P6SM SCT007 BKN050 BKN080 FM270700 VRB03KT 6SM -RA SCT007 SCT015 OVC080 FM270900 VRB03KT 6SM BR SCT005 SCT015 TEMPO 2709/2712 00000KT 1 1/2SM BR BKN003 FM271600 25004KT P6SM BKN035 BKN090 PROB30 2717/2721 6SM -SHRA SCT025 OVC040
NOTAMs
Click for the latest NOTAMs
NOTAMs are issued by the DoD/FAA and will open in a separate window not controlled by AirNav.

 

 
 

FBO, Fuel Providers, and Aircraft Ground Support

  
 Business Name 
 
 Contact 
 
 Services / Description 
 
Fuel Prices
 
Comments
  
Lake Ridge Aero Park 919-688-2928
no information available

If you are affiliated with Lake Ridge Aero Park and would like to show here your services, contact info, web link, logo, and more, click here
100LL
AS $5.75 
 Updated 30-Apr-2014
 
   write
AS=Assisted/Self Service
Update Fuel Prices
 

Would you like to see your business listed on this page?

 If your business provides an interesting product or service to pilots, flight crews, aircraft, or users of the Lake Ridge Aero Park Airport, you should consider listing it here.  To start the listing process, click on the button below
 
Add a business
 

Other Pages about Lake Ridge Aero Park Airport

Update a link
 
Copyright © AirNav, LLC. All rights reserved. Privacy Policy  Contact